sensor_id;sensor_type;location;lat;lon;timestamp;pressure;altitude;pressure_sealevel;temperature;humidity
29941;BME280;16801;53.562;10.038;2023-08-30T00:03:12;100751.50;;;17.30;91.02
29941;BME280;16801;53.562;10.038;2023-08-30T00:06:33;100741.25;;;17.32;91.07
29941;BME280;16801;53.562;10.038;2023-08-30T00:09:56;100739.66;;;17.23;91.49
29941;BME280;16801;53.562;10.038;2023-08-30T00:13:17;100740.78;;;17.28;91.56
29941;BME280;16801;53.562;10.038;2023-08-30T00:16:38;100734.66;;;17.26;91.61
29941;BME280;16801;53.562;10.038;2023-08-30T00:19:59;100742.06;;;17.18;91.95
29941;BME280;16801;53.562;10.038;2023-08-30T00:23:20;100736.28;;;17.13;92.02
29941;BME280;16801;53.562;10.038;2023-08-30T00:26:42;100739.94;;;17.05;91.99
29941;BME280;16801;53.562;10.038;2023-08-30T00:30:04;100741.88;;;16.97;92.48
29941;BME280;16801;53.562;10.038;2023-08-30T00:33:28;100736.69;;;17.10;92.61
29941;BME280;16801;53.562;10.038;2023-08-30T00:36:49;100730.09;;;17.04;92.83
29941;BME280;16801;53.562;10.038;2023-08-30T00:40:11;100732.38;;;16.93;92.58
29941;BME280;16801;53.562;10.038;2023-08-30T00:43:33;100738.34;;;16.88;93.30
29941;BME280;16801;53.562;10.038;2023-08-30T00:46:54;100736.66;;;16.87;93.31
29941;BME280;16801;53.562;10.038;2023-08-30T00:50:15;100729.22;;;16.81;93.46
29941;BME280;16801;53.562;10.038;2023-08-30T00:53:36;100736.16;;;16.84;93.39
29941;BME280;16801;53.562;10.038;2023-08-30T00:56:58;100739.97;;;16.74;93.89
29941;BME280;16801;53.562;10.038;2023-08-30T01:00:22;100726.53;;;16.73;94.23
29941;BME280;16801;53.562;10.038;2023-08-30T01:03:43;100727.25;;;16.67;93.97
29941;BME280;16801;53.562;10.038;2023-08-30T01:07:04;100717.75;;;16.63;94.10
29941;BME280;16801;53.562;10.038;2023-08-30T01:10:33;100716.78;;;16.56;94.27
29941;BME280;16801;53.562;10.038;2023-08-30T01:14:04;100717.59;;;16.56;94.52
29941;BME280;16801;53.562;10.038;2023-08-30T01:17:29;100723.59;;;16.44;94.43
29941;BME280;16801;53.562;10.038;2023-08-30T01:20:52;100721.72;;;16.52;95.13
29941;BME280;16801;53.562;10.038;2023-08-30T01:24:23;100722.09;;;16.49;94.77
29941;BME280;16801;53.562;10.038;2023-08-30T01:27:48;100711.50;;;16.46;94.81
29941;BME280;16801;53.562;10.038;2023-08-30T01:31:11;100700.31;;;16.49;95.13
29941;BME280;16801;53.562;10.038;2023-08-30T01:34:33;100700.59;;;16.54;94.63
29941;BME280;16801;53.562;10.038;2023-08-30T01:37:54;100705.03;;;16.55;94.36
29941;BME280;16801;53.562;10.038;2023-08-30T01:41:17;100702.88;;;16.43;94.73
29941;BME280;16801;53.562;10.038;2023-08-30T01:44:41;100693.13;;;16.48;94.77
29941;BME280;16801;53.562;10.038;2023-08-30T01:48:06;100692.88;;;16.35;95.02
29941;BME280;16801;53.562;10.038;2023-08-30T01:51:27;100700.13;;;16.43;95.30
29941;BME280;16801;53.562;10.038;2023-08-30T01:54:51;100701.47;;;16.47;95.37
29941;BME280;16801;53.562;10.038;2023-08-30T01:58:12;100697.75;;;16.48;95.36
29941;BME280;16801;53.562;10.038;2023-08-30T02:01:34;100701.19;;;16.34;95.49
29941;BME280;16801;53.562;10.038;2023-08-30T02:04:55;100688.94;;;16.38;95.55
29941;BME280;16801;53.562;10.038;2023-08-30T02:08:17;100686.53;;;16.43;95.53
29941;BME280;16801;53.562;10.038;2023-08-30T02:11:39;100682.47;;;16.39;95.65
29941;BME280;16801;53.562;10.038;2023-08-30T02:15:05;100686.34;;;16.44;95.74
29941;BME280;16801;53.562;10.038;2023-08-30T02:18:29;100674.78;;;16.42;95.67
29941;BME280;16801;53.562;10.038;2023-08-30T02:21:51;100681.84;;;16.29;95.41
29941;BME280;16801;53.562;10.038;2023-08-30T02:25:12;100681.31;;;16.33;95.92
29941;BME280;16801;53.562;10.038;2023-08-30T02:28:33;100675.38;;;16.30;96.20
29941;BME280;16801;53.562;10.038;2023-08-30T02:31:54;100676.72;;;16.34;95.92
29941;BME280;16801;53.562;10.038;2023-08-30T02:35:16;100676.72;;;16.34;96.30
29941;BME280;16801;53.562;10.038;2023-08-30T02:38:37;100668.88;;;16.39;96.40
29941;BME280;16801;53.562;10.038;2023-08-30T02:41:58;100673.66;;;16.37;96.63
29941;BME280;16801;53.562;10.038;2023-08-30T02:45:19;100668.03;;;16.38;96.68
29941;BME280;16801;53.562;10.038;2023-08-30T02:48:40;100681.53;;;16.24;97.42
29941;BME280;16801;53.562;10.038;2023-08-30T02:52:03;100684.09;;;16.17;98.17
29941;BME280;16801;53.562;10.038;2023-08-30T02:55:24;100685.41;;;16.29;98.74
29941;BME280;16801;53.562;10.038;2023-08-30T02:58:46;100683.19;;;16.33;98.58
29941;BME280;16801;53.562;10.038;2023-08-30T03:02:07;100676.31;;;16.45;98.57
29941;BME280;16801;53.562;10.038;2023-08-30T03:05:28;100682.94;;;16.50;98.37
29941;BME280;16801;53.562;10.038;2023-08-30T03:08:50;100680.06;;;16.52;98.31
29941;BME280;16801;53.562;10.038;2023-08-30T03:12:12;100674.94;;;16.49;97.54
29941;BME280;16801;53.562;10.038;2023-08-30T03:15:33;100676.09;;;16.24;98.07
29941;BME280;16801;53.562;10.038;2023-08-30T03:18:57;100681.28;;;16.41;98.47
29941;BME280;16801;53.562;10.038;2023-08-30T03:22:18;100682.34;;;16.32;98.48
29941;BME280;16801;53.562;10.038;2023-08-30T03:25:41;100675.31;;;16.38;98.57
29941;BME280;16801;53.562;10.038;2023-08-30T03:29:02;100680.63;;;16.31;98.59
29941;BME280;16801;53.562;10.038;2023-08-30T03:32:23;100677.91;;;16.31;98.49
29941;BME280;16801;53.562;10.038;2023-08-30T03:35:43;100671.44;;;16.32;98.21
29941;BME280;16801;53.562;10.038;2023-08-30T03:39:05;100671.44;;;16.32;98.11
29941;BME280;16801;53.562;10.038;2023-08-30T03:42:28;100666.09;;;16.16;98.26
29941;BME280;16801;53.562;10.038;2023-08-30T03:45:49;100667.06;;;16.23;98.14
29941;BME280;16801;53.562;10.038;2023-08-30T03:49:12;100664.09;;;16.02;98.79
29941;BME280;16801;53.562;10.038;2023-08-30T03:52:33;100663.88;;;15.73;99.12
29941;BME280;16801;53.562;10.038;2023-08-30T03:55:54;100662.03;;;15.65;100.00
29941;BME280;16801;53.562;10.038;2023-08-30T03:59:18;100649.25;;;15.82;100.00
29941;BME280;16801;53.562;10.038;2023-08-30T04:02:39;100650.06;;;15.90;100.00
29941;BME280;16801;53.562;10.038;2023-08-30T04:06:00;100648.50;;;15.96;100.00
29941;BME280;16801;53.562;10.038;2023-08-30T04:09:21;100644.41;;;16.00;100.00
29941;BME280;16801;53.562;10.038;2023-08-30T04:12:43;100639.66;;;15.94;100.00
29941;BME280;16801;53.562;10.038;2023-08-30T04:16:05;100624.44;;;16.16;100.00
29941;BME280;16801;53.562;10.038;2023-08-30T04:19:26;100628.31;;;15.90;99.25
29941;BME280;16801;53.562;10.038;2023-08-30T04:22:47;100623.47;;;15.70;99.82
29941;BME280;16801;53.562;10.038;2023-08-30T04:26:08;100624.03;;;15.49;100.00
29941;BME280;16801;53.562;10.038;2023-08-30T04:29:29;100620.97;;;15.36;100.00
29941;BME280;16801;53.562;10.038;2023-08-30T04:32:52;100621.50;;;15.48;100.00
29941;BME280;16801;53.562;10.038;2023-08-30T04:36:12;100615.34;;;15.62;100.00
29941;BME280;16801;53.562;10.038;2023-08-30T04:39:33;100612.41;;;15.71;100.00
29941;BME280;16801;53.562;10.038;2023-08-30T04:42:55;100608.19;;;15.61;100.00
29941;BME280;16801;53.562;10.038;2023-08-30T04:46:16;100614.03;;;15.88;100.00
29941;BME280;16801;53.562;10.038;2023-08-30T04:49:38;100618.56;;;15.65;100.00
29941;BME280;16801;53.562;10.038;2023-08-30T04:52:59;100613.19;;;15.49;100.00
29941;BME280;16801;53.562;10.038;2023-08-30T04:56:20;100617.41;;;15.36;100.00
29941;BME280;16801;53.562;10.038;2023-08-30T04:59:42;100619.97;;;15.29;100.00
29941;BME280;16801;53.562;10.038;2023-08-30T05:03:04;100629.50;;;15.33;100.00
29941;BME280;16801;53.562;10.038;2023-08-30T05:06:26;100622.84;;;15.44;100.00
29941;BME280;16801;53.562;10.038;2023-08-30T05:09:47;100613.47;;;15.54;100.00
29941;BME280;16801;53.562;10.038;2023-08-30T05:13:08;100611.91;;;15.68;100.00
29941;BME280;16801;53.562;10.038;2023-08-30T05:16:31;100617.34;;;15.68;100.00
29941;BME280;16801;53.562;10.038;2023-08-30T05:19:52;100622.78;;;15.68;100.00
29941;BME280;16801;53.562;10.038;2023-08-30T05:23:15;100613.25;;;15.72;100.00
29941;BME280;16801;53.562;10.038;2023-08-30T05:26:36;100615.72;;;15.97;100.00
29941;BME280;16801;53.562;10.038;2023-08-30T05:29:56;100614.00;;;16.27;98.92
29941;BME280;16801;53.562;10.038;2023-08-30T05:33:18;100618.25;;;16.30;97.72
29941;BME280;16801;53.562;10.038;2023-08-30T05:37:11;100612.50;;;16.25;97.24
29941;BME280;16801;53.562;10.038;2023-08-30T05:40:51;100623.91;;;15.89;97.46
29941;BME280;16801;53.562;10.038;2023-08-30T05:44:12;100617.66;;;15.81;98.51
29941;BME280;16801;53.562;10.038;2023-08-30T05:47:33;100622.78;;;16.07;98.14
29941;BME280;16801;53.562;10.038;2023-08-30T05:50:54;100617.63;;;16.20;97.64
29941;BME280;16801;53.562;10.038;2023-08-30T05:54:15;100616.38;;;16.30;96.88
29941;BME280;16801;53.562;10.038;2023-08-30T05:57:37;100623.63;;;16.07;97.16
29941;BME280;16801;53.562;10.038;2023-08-30T06:00:58;100608.25;;;16.22;97.37
29941;BME280;16801;53.562;10.038;2023-08-30T06:04:19;100597.53;;;16.29;97.46
29941;BME280;16801;53.562;10.038;2023-08-30T06:07:40;100605.94;;;16.11;96.85
29941;BME280;16801;53.562;10.038;2023-08-30T06:11:01;100592.13;;;16.51;95.63
29941;BME280;16801;53.562;10.038;2023-08-30T06:14:23;100594.47;;;16.54;94.86
29941;BME280;16801;53.562;10.038;2023-08-30T06:17:44;100595.91;;;16.65;93.79
29941;BME280;16801;53.562;10.038;2023-08-30T06:21:06;100594.28;;;16.78;92.84
29941;BME280;16801;53.562;10.038;2023-08-30T06:24:26;100592.16;;;16.89;92.20
29941;BME280;16801;53.562;10.038;2023-08-30T06:27:55;100582.69;;;16.99;91.31
29941;BME280;16801;53.562;10.038;2023-08-30T06:31:18;100583.75;;;17.27;90.33
29941;BME280;16801;53.562;10.038;2023-08-30T06:34:39;100583.28;;;17.09;89.05
29941;BME280;16801;53.562;10.038;2023-08-30T06:38:00;100577.22;;;17.51;89.06
29941;BME280;16801;53.562;10.038;2023-08-30T06:41:21;100574.94;;;17.40;87.60
29941;BME280;16801;53.562;10.038;2023-08-30T06:44:43;100569.06;;;17.51;86.98
29941;BME280;16801;53.562;10.038;2023-08-30T06:48:06;100567.38;;;17.65;86.63
29941;BME280;16801;53.562;10.038;2023-08-30T06:51:27;100574.97;;;17.69;85.31
29941;BME280;16801;53.562;10.038;2023-08-30T06:54:48;100566.31;;;17.66;85.42
29941;BME280;16801;53.562;10.038;2023-08-30T06:58:08;100561.63;;;17.74;84.96
29941;BME280;16801;53.562;10.038;2023-08-30T07:01:29;100560.13;;;18.07;84.45
29941;BME280;16801;53.562;10.038;2023-08-30T07:04:55;100561.84;;;18.29;83.37
29941;BME280;16801;53.562;10.038;2023-08-30T07:08:16;100552.44;;;18.32;82.99
29941;BME280;16801;53.562;10.038;2023-08-30T07:11:37;100558.16;;;18.37;82.37
29941;BME280;16801;53.562;10.038;2023-08-30T07:14:58;100564.44;;;18.16;82.77
29941;BME280;16801;53.562;10.038;2023-08-30T07:18:18;100557.63;;;18.63;82.28
29941;BME280;16801;53.562;10.038;2023-08-30T07:21:41;100560.53;;;18.61;81.18
29941;BME280;16801;53.562;10.038;2023-08-30T07:25:02;100560.47;;;18.40;81.30
29941;BME280;16801;53.562;10.038;2023-08-30T07:28:23;100561.44;;;18.68;80.76
29941;BME280;16801;53.562;10.038;2023-08-30T07:31:44;100560.38;;;18.27;81.92
29941;BME280;16801;53.562;10.038;2023-08-30T07:35:06;100557.72;;;18.55;80.87
29941;BME280;16801;53.562;10.038;2023-08-30T07:38:28;100557.47;;;18.50;80.90
29941;BME280;16801;53.562;10.038;2023-08-30T07:41:49;100566.63;;;18.63;80.92
29941;BME280;16801;53.562;10.038;2023-08-30T07:45:10;100559.53;;;18.90;80.29
29941;BME280;16801;53.562;10.038;2023-08-30T07:48:30;100577.81;;;18.47;79.63
29941;BME280;16801;53.562;10.038;2023-08-30T07:51:52;100584.22;;;18.54;79.59
29941;BME280;16801;53.562;10.038;2023-08-30T07:55:14;100581.59;;;18.31;80.26
29941;BME280;16801;53.562;10.038;2023-08-30T07:58:35;100571.78;;;18.73;79.79
29941;BME280;16801;53.562;10.038;2023-08-30T08:01:56;100569.16;;;19.13;79.32
29941;BME280;16801;53.562;10.038;2023-08-30T08:05:17;100571.75;;;18.94;78.48
29941;BME280;16801;53.562;10.038;2023-08-30T08:08:38;100566.44;;;19.13;78.82
29941;BME280;16801;53.562;10.038;2023-08-30T08:12:00;100564.63;;;19.55;76.98
29941;BME280;16801;53.562;10.038;2023-08-30T08:15:21;100568.78;;;19.17;76.57
29941;BME280;16801;53.562;10.038;2023-08-30T08:18:42;100563.38;;;19.30;76.32
29941;BME280;16801;53.562;10.038;2023-08-30T08:22:03;100570.28;;;19.19;76.81
29941;BME280;16801;53.562;10.038;2023-08-30T08:25:24;100574.88;;;19.40;75.90
29941;BME280;16801;53.562;10.038;2023-08-30T08:28:46;100571.38;;;19.59;75.47
29941;BME280;16801;53.562;10.038;2023-08-30T08:32:07;100575.53;;;19.89;73.67
29941;BME280;16801;53.562;10.038;2023-08-30T08:35:27;100577.13;;;19.36;74.43
29941;BME280;16801;53.562;10.038;2023-08-30T08:38:48;100579.63;;;20.06;73.38
29941;BME280;16801;53.562;10.038;2023-08-30T08:42:09;100581.16;;;19.74;73.23
29941;BME280;16801;53.562;10.038;2023-08-30T08:45:34;100583.44;;;20.98;71.14
29941;BME280;16801;53.562;10.038;2023-08-30T08:48:55;100585.94;;;20.67;69.23
29941;BME280;16801;53.562;10.038;2023-08-30T08:52:18;100580.09;;;19.69;71.69
29941;BME280;16801;53.562;10.038;2023-08-30T08:55:39;100578.66;;;20.27;71.18
29941;BME280;16801;53.562;10.038;2023-08-30T08:59:01;100580.69;;;19.64;71.23
29941;BME280;16801;53.562;10.038;2023-08-30T09:02:24;100587.22;;;19.08;72.92
29941;BME280;16801;53.562;10.038;2023-08-30T09:05:49;100581.44;;;18.96;72.49
29941;BME280;16801;53.562;10.038;2023-08-30T09:09:11;100587.44;;;19.68;70.71
29941;BME280;16801;53.562;10.038;2023-08-30T09:12:34;100582.09;;;19.54;70.82
29941;BME280;16801;53.562;10.038;2023-08-30T09:15:55;100577.88;;;19.51;70.76
29941;BME280;16801;53.562;10.038;2023-08-30T09:19:20;100583.25;;;19.38;70.90
29941;BME280;16801;53.562;10.038;2023-08-30T09:22:42;100580.06;;;20.16;69.58
29941;BME280;16801;53.562;10.038;2023-08-30T09:26:04;100581.28;;;20.54;67.48
29941;BME280;16801;53.562;10.038;2023-08-30T09:29:25;100584.81;;;20.35;66.26
29941;BME280;16801;53.562;10.038;2023-08-30T09:32:46;100585.38;;;19.77;67.53
29941;BME280;16801;53.562;10.038;2023-08-30T09:36:11;100586.50;;;19.89;65.93
29941;BME280;16801;53.562;10.038;2023-08-30T09:39:48;100572.75;;;19.76;65.63
29941;BME280;16801;53.562;10.038;2023-08-30T09:43:09;100577.81;;;19.79;64.89
29941;BME280;16801;53.562;10.038;2023-08-30T09:46:31;100572.19;;;19.93;64.78
29941;BME280;16801;53.562;10.038;2023-08-30T09:49:54;100570.84;;;19.76;65.65
29941;BME280;16801;53.562;10.038;2023-08-30T09:53:17;100574.16;;;19.65;66.69
29941;BME280;16801;53.562;10.038;2023-08-30T09:56:41;100569.41;;;19.40;68.29
29941;BME280;16801;53.562;10.038;2023-08-30T10:00:03;100565.31;;;19.63;67.91
29941;BME280;16801;53.562;10.038;2023-08-30T10:03:25;100565.72;;;19.60;68.03
29941;BME280;16801;53.562;10.038;2023-08-30T10:06:46;100567.47;;;19.34;66.84
29941;BME280;16801;53.562;10.038;2023-08-30T10:10:09;100561.72;;;19.56;66.88
29941;BME280;16801;53.562;10.038;2023-08-30T10:13:33;100561.22;;;19.87;65.61
29941;BME280;16801;53.562;10.038;2023-08-30T10:17:01;100562.75;;;20.03;65.09
29941;BME280;16801;53.562;10.038;2023-08-30T10:20:22;100561.97;;;20.09;63.86
29941;BME280;16801;53.562;10.038;2023-08-30T10:23:44;100556.97;;;20.32;63.43
29941;BME280;16801;53.562;10.038;2023-08-30T10:27:08;100556.78;;;20.27;61.03
29941;BME280;16801;53.562;10.038;2023-08-30T10:30:30;100561.56;;;20.18;60.48
29941;BME280;16801;53.562;10.038;2023-08-30T10:33:53;100560.94;;;19.69;60.38
29941;BME280;16801;53.562;10.038;2023-08-30T10:37:15;100566.28;;;19.83;60.49
29941;BME280;16801;53.562;10.038;2023-08-30T10:40:44;100559.38;;;19.94;59.55
29941;BME280;16801;53.562;10.038;2023-08-30T10:44:07;100551.59;;;21.04;58.86
29941;BME280;16801;53.562;10.038;2023-08-30T10:47:35;100553.41;;;21.62;57.27
29941;BME280;16801;53.562;10.038;2023-08-30T10:50:57;100555.56;;;20.95;57.80
29941;BME280;16801;53.562;10.038;2023-08-30T10:54:18;100545.16;;;21.69;57.21
29941;BME280;16801;53.562;10.038;2023-08-30T10:57:42;100554.44;;;22.25;55.36
29941;BME280;16801;53.562;10.038;2023-08-30T11:01:05;100548.94;;;21.61;56.38
29941;BME280;16801;53.562;10.038;2023-08-30T11:04:27;100552.56;;;21.55;57.55
29941;BME280;16801;53.562;10.038;2023-08-30T11:07:48;100544.22;;;22.32;57.09
29941;BME280;16801;53.562;10.038;2023-08-30T11:11:10;100528.19;;;22.67;56.09
29941;BME280;16801;53.562;10.038;2023-08-30T11:14:34;100526.59;;;22.84;54.36
29941;BME280;16801;53.562;10.038;2023-08-30T11:18:03;100528.78;;;23.43;53.27
29941;BME280;16801;53.562;10.038;2023-08-30T11:21:24;100535.09;;;22.76;51.10
29941;BME280;16801;53.562;10.038;2023-08-30T11:24:47;100532.81;;;21.27;54.05
29941;BME280;16801;53.562;10.038;2023-08-30T11:28:08;100535.16;;;21.10;54.69
29941;BME280;16801;53.562;10.038;2023-08-30T11:31:29;100524.75;;;21.32;55.02
29941;BME280;16801;53.562;10.038;2023-08-30T11:34:56;100533.22;;;21.37;54.90
29941;BME280;16801;53.562;10.038;2023-08-30T11:38:18;100521.28;;;22.20;53.12
29941;BME280;16801;53.562;10.038;2023-08-30T11:41:39;100519.00;;;23.65;50.13
29941;BME280;16801;53.562;10.038;2023-08-30T11:45:01;100524.19;;;21.81;53.03
29941;BME280;16801;53.562;10.038;2023-08-30T11:48:22;100523.50;;;22.98;49.39
29941;BME280;16801;53.562;10.038;2023-08-30T11:51:44;100503.59;;;24.12;48.38
29941;BME280;16801;53.562;10.038;2023-08-30T11:55:07;100519.47;;;22.70;49.22
29941;BME280;16801;53.562;10.038;2023-08-30T11:58:32;100510.97;;;22.78;51.08
29941;BME280;16801;53.562;10.038;2023-08-30T12:01:53;100490.38;;;23.66;48.95
29941;BME280;16801;53.562;10.038;2023-08-30T12:05:13;100485.06;;;24.72;47.43
29941;BME280;16801;53.562;10.038;2023-08-30T12:08:36;100481.84;;;24.75;47.15
29941;BME280;16801;53.562;10.038;2023-08-30T12:12:05;100479.50;;;24.07;48.50
29941;BME280;16801;53.562;10.038;2023-08-30T12:15:26;100486.69;;;25.25;45.31
29941;BME280;16801;53.562;10.038;2023-08-30T12:18:47;100485.72;;;24.74;46.57
29941;BME280;16801;53.562;10.038;2023-08-30T12:22:08;100493.25;;;25.01;46.25
29941;BME280;16801;53.562;10.038;2023-08-30T12:25:30;100487.63;;;25.54;45.38
29941;BME280;16801;53.562;10.038;2023-08-30T12:28:53;100480.44;;;26.49;42.77
29941;BME280;16801;53.562;10.038;2023-08-30T12:32:14;100481.53;;;24.12;46.52
29941;BME280;16801;53.562;10.038;2023-08-30T12:35:37;100485.97;;;26.21;43.14
29941;BME280;16801;53.562;10.038;2023-08-30T12:38:58;100452.19;;;24.70;45.68
29941;BME280;16801;53.562;10.038;2023-08-30T12:42:20;100454.75;;;26.37;42.94
29941;BME280;16801;53.562;10.038;2023-08-30T12:45:42;100458.63;;;26.53;43.19
29941;BME280;16801;53.562;10.038;2023-08-30T12:49:03;100462.97;;;22.49;49.33
29941;BME280;16801;53.562;10.038;2023-08-30T12:52:24;100454.28;;;22.59;51.10
29941;BME280;16801;53.562;10.038;2023-08-30T12:55:45;100440.75;;;25.99;46.01
29941;BME280;16801;53.562;10.038;2023-08-30T12:59:07;100433.09;;;24.34;46.74
29941;BME280;16801;53.562;10.038;2023-08-30T13:02:28;100424.47;;;26.75;45.53
29941;BME280;16801;53.562;10.038;2023-08-30T13:05:49;100423.88;;;27.28;42.85
29941;BME280;16801;53.562;10.038;2023-08-30T13:09:10;100413.56;;;27.24;42.21
29941;BME280;16801;53.562;10.038;2023-08-30T13:12:31;100414.72;;;28.19;39.42
29941;BME280;16801;53.562;10.038;2023-08-30T13:15:53;100424.03;;;25.14;43.98
29941;BME280;16801;53.562;10.038;2023-08-30T13:19:14;100418.63;;;26.10;44.25
29941;BME280;16801;53.562;10.038;2023-08-30T13:22:35;100420.22;;;24.81;44.93
29941;BME280;16801;53.562;10.038;2023-08-30T13:25:56;100401.22;;;26.43;42.94
29941;BME280;16801;53.562;10.038;2023-08-30T13:29:17;100409.66;;;25.92;42.90
29941;BME280;16801;53.562;10.038;2023-08-30T13:32:39;100411.47;;;24.84;45.48
29941;BME280;16801;53.562;10.038;2023-08-30T13:36:00;100402.75;;;27.22;42.80
29941;BME280;16801;53.562;10.038;2023-08-30T13:39:22;100419.59;;;24.67;45.25
29941;BME280;16801;53.562;10.038;2023-08-30T13:42:43;100400.41;;;26.76;42.94
29941;BME280;16801;53.562;10.038;2023-08-30T13:46:04;100398.09;;;25.27;42.96
29941;BME280;16801;53.562;10.038;2023-08-30T13:49:26;100391.72;;;23.81;46.34
29941;BME280;16801;53.562;10.038;2023-08-30T13:52:47;100394.69;;;22.95;49.38
29941;BME280;16801;53.562;10.038;2023-08-30T13:56:08;100388.72;;;22.80;49.28
29941;BME280;16801;53.562;10.038;2023-08-30T13:59:29;100395.25;;;23.40;48.16
29941;BME280;16801;53.562;10.038;2023-08-30T14:02:50;100397.81;;;22.56;49.00
29941;BME280;16801;53.562;10.038;2023-08-30T14:06:12;100381.09;;;22.58;49.80
29941;BME280;16801;53.562;10.038;2023-08-30T14:09:35;100380.88;;;23.68;47.85
29941;BME280;16801;53.562;10.038;2023-08-30T14:12:56;100382.91;;;23.25;47.57
29941;BME280;16801;53.562;10.038;2023-08-30T14:16:16;100374.91;;;24.01;46.45
29941;BME280;16801;53.562;10.038;2023-08-30T14:19:37;100376.50;;;22.76;48.97
29941;BME280;16801;53.562;10.038;2023-08-30T14:23:00;100378.84;;;23.63;47.02
29941;BME280;16801;53.562;10.038;2023-08-30T14:26:21;100377.97;;;23.33;47.45
29941;BME280;16801;53.562;10.038;2023-08-30T14:29:42;100370.84;;;22.71;49.50
29941;BME280;16801;53.562;10.038;2023-08-30T14:33:04;100382.16;;;22.32;50.10
29941;BME280;16801;53.562;10.038;2023-08-30T14:36:25;100383.97;;;21.89;50.90
29941;BME280;16801;53.562;10.038;2023-08-30T14:39:47;100392.34;;;21.63;51.42
29941;BME280;16801;53.562;10.038;2023-08-30T14:43:08;100389.41;;;21.13;52.37
29941;BME280;16801;53.562;10.038;2023-08-30T14:46:29;100383.81;;;21.77;51.69
29941;BME280;16801;53.562;10.038;2023-08-30T14:49:50;100384.09;;;21.69;51.58
29941;BME280;16801;53.562;10.038;2023-08-30T14:53:10;100387.47;;;21.71;51.99
29941;BME280;16801;53.562;10.038;2023-08-30T14:56:33;100378.44;;;21.95;52.00
29941;BME280;16801;53.562;10.038;2023-08-30T14:59:54;100377.75;;;22.06;51.19
29941;BME280;16801;53.562;10.038;2023-08-30T15:03:15;100386.00;;;21.69;51.56
29941;BME280;16801;53.562;10.038;2023-08-30T15:06:36;100386.31;;;21.47;52.40
29941;BME280;16801;53.562;10.038;2023-08-30T15:09:59;100383.47;;;21.23;53.29
29941;BME280;16801;53.562;10.038;2023-08-30T15:13:22;100382.47;;;21.11;53.88
29941;BME280;16801;53.562;10.038;2023-08-30T15:16:43;100394.88;;;21.20;54.21
29941;BME280;16801;53.562;10.038;2023-08-30T15:20:05;100378.25;;;21.15;53.91
29941;BME280;16801;53.562;10.038;2023-08-30T15:23:26;100381.41;;;20.99;54.03
29941;BME280;16801;53.562;10.038;2023-08-30T15:26:47;100379.28;;;21.14;53.69
29941;BME280;16801;53.562;10.038;2023-08-30T15:30:11;100381.81;;;21.15;53.68
29941;BME280;16801;53.562;10.038;2023-08-30T15:33:32;100376.16;;;20.97;54.68
29941;BME280;16801;53.562;10.038;2023-08-30T15:36:53;100377.09;;;20.65;55.73
29941;BME280;16801;53.562;10.038;2023-08-30T15:40:14;100384.25;;;20.59;56.15
29941;BME280;16801;53.562;10.038;2023-08-30T15:43:35;100377.06;;;20.71;56.30
29941;BME280;16801;53.562;10.038;2023-08-30T15:47:02;100379.88;;;21.22;55.84
29941;BME280;16801;53.562;10.038;2023-08-30T15:50:23;100371.75;;;20.96;55.32
29941;BME280;16801;53.562;10.038;2023-08-30T15:53:43;100372.81;;;20.82;56.14
29941;BME280;16801;53.562;10.038;2023-08-30T15:57:04;100369.03;;;20.83;56.29
29941;BME280;16801;53.562;10.038;2023-08-30T16:00:25;100361.06;;;20.62;56.19
29941;BME280;16801;53.562;10.038;2023-08-30T16:03:48;100362.53;;;20.64;56.57
29941;BME280;16801;53.562;10.038;2023-08-30T16:07:09;100354.03;;;20.92;56.48
29941;BME280;16801;53.562;10.038;2023-08-30T16:10:31;100359.72;;;21.04;55.67
29941;BME280;16801;53.562;10.038;2023-08-30T16:13:53;100358.22;;;21.08;56.52
29941;BME280;16801;53.562;10.038;2023-08-30T16:17:14;100360.06;;;21.20;57.26
29941;BME280;16801;53.562;10.038;2023-08-30T16:20:36;100372.78;;;20.95;57.68
29941;BME280;16801;53.562;10.038;2023-08-30T16:23:57;100364.16;;;20.92;58.25
29941;BME280;16801;53.562;10.038;2023-08-30T16:27:18;100374.03;;;21.06;59.13
29941;BME280;16801;53.562;10.038;2023-08-30T16:30:39;100368.63;;;20.80;59.05
29941;BME280;16801;53.562;10.038;2023-08-30T16:34:00;100366.34;;;19.91;60.88
29941;BME280;16801;53.562;10.038;2023-08-30T16:37:22;100371.59;;;19.93;62.32
29941;BME280;16801;53.562;10.038;2023-08-30T16:40:43;100372.44;;;19.27;67.90
29941;BME280;16801;53.562;10.038;2023-08-30T16:44:04;100363.09;;;19.01;71.88
29941;BME280;16801;53.562;10.038;2023-08-30T16:47:25;100365.91;;;19.28;72.80
29941;BME280;16801;53.562;10.038;2023-08-30T16:50:46;100360.88;;;19.25;73.76
29941;BME280;16801;53.562;10.038;2023-08-30T16:54:09;100352.59;;;19.52;73.41
29941;BME280;16801;53.562;10.038;2023-08-30T16:57:30;100358.09;;;19.72;73.37
29941;BME280;16801;53.562;10.038;2023-08-30T17:00:51;100353.66;;;19.64;73.17
29941;BME280;16801;53.562;10.038;2023-08-30T17:04:11;100353.22;;;19.67;74.68
29941;BME280;16801;53.562;10.038;2023-08-30T17:07:33;100354.94;;;19.75;75.46
29941;BME280;16801;53.562;10.038;2023-08-30T17:11:02;100353.69;;;19.77;76.28
29941;BME280;16801;53.562;10.038;2023-08-30T17:14:22;100356.59;;;19.56;76.07
29941;BME280;16801;53.562;10.038;2023-08-30T17:17:43;100358.50;;;19.56;76.65
29941;BME280;16801;53.562;10.038;2023-08-30T17:21:04;100355.81;;;19.75;77.07